AirNav   Pilot Hours Calculator
 
 403 users online  

3WI2 Tesmer Airport
Waterloo, Wisconsin, USA

GOING TO WATERLOO?


FAA INFORMATION EFFECTIVE 22 APRIL 2021

Location

FAA Identifier: 3WI2
Lat/Long: 43-09-09.9870N 088-59-04.3910W
43-09.166450N 088-59.073183W
43.1527742,-88.9845531
(estimated)
Elevation: 925 ft. / 282 m (estimated)
Variation: 00W (1985)
From city: 2 miles S of WATERLOO, WI
Time zone: UTC -5 (UTC -6 during Standard Time)
Zip code: 53594

Airport Operations

Airport use: Private use. Permission required prior to landing
Control tower: no
ARTCC: CHICAGO CENTER
FSS: GREEN BAY FLIGHT SERVICE STATION
Attendance: UNATNDD
Wind indicator: yes
Segmented circle: no

Airport Communications

WX AWOS-3 at RYV (11 nm E): 119.975 (920-261-0734)
WX ASOS at MSN (15 nm W): PHONE 608-249-0615

Nearby radio navigation aids

VOR radial/distance  VOR name  Freq  Var
MSNr085/15.6MADISON VORTAC108.6003E
BAEr272/30.7BADGER VOR/DME116.4002E
JVLr005/36.1JANESVILLE VOR/DME114.3003E

 
NDB name  Hdg/Dist  Freq  Var  ID
ROCK RIVER265/11.437101WRYV .-. -.-- ...-
JUNEAU218/20.734401WUNU ..- -. ..-

Airport Services

Airframe service: NONE
Powerplant service: NONE

Runway Information

Runway 2/20

Dimensions: 3000 x 90 ft. / 914 x 27 m
Surface: turf
RUNWAY 2  RUNWAY 20
Traffic pattern: leftleft
Obstructions: none40 ft. trees, marked, 600 ft. from runway

Airport Ownership and Management from official FAA records

Ownership: Privately-owned
Owner: JAMES J. TESMER
N8328 C.T.H O
WATERLOO, WI 53594
Phone 920-478-2542
Manager: JAMES J. TESMER
N8328 C.T.H O
WATERLOO, WI 53594
Phone 920-478-2542

Airport Operational Statistics

Aircraft based on the field: 5
Single engine airplanes: 3
Ultralights: 2
    

Additional Remarks

FOR CD CTC CHICAGO ARTCC AT 630-906-8921.

Instrument Procedures

There are no published instrument procedures at 3WI2.

Some nearby airports with instrument procedures:

87Y - Blackhawk Airfield (9 nm W)
KRYV - Watertown Municipal Airport (11 nm E)
61C - Fort Atkinson Municipal Airport (14 nm SE)
KMSN - Dane County Regional Airport-Truax Field (15 nm W)
KUNU - Dodge County Airport (20 nm NE)
 
Loc | Ops | Rwys | IFR | FBO | Links
Com | Nav | Svcs | Stats | Notes
Area around 3WI2 (Tesmer Airport)
 
Road maps at: MapQuest Bing Google
 
Aerial photo
No photo
 
Sectional chart

 
Airport distance calculator
Flying to Tesmer Airport? Find the distance to fly.

From to 3WI2

Sunrise and sunset
Times for 09-May-2021
 Local
(UTC-5)
 Zulu
(UTC)
Morning civil twilight05:0810:08
Sunrise05:4010:40
Sunset20:0501:05
Evening civil twilight20:3701:37

Current date and time
Zulu (UTC)  09-May-2021 08:04:04
Local (UTC-5)  09-May-2021 03:04:04
 
METAR
KRYV 
12nm E 
090755Z AUTO 07003KT 10SM CLR 05/00 A2997 RMK AO2 LTG DSNT S T00450000
KMSN 
16nm W 
090753Z AUTO 00000KT 10SM CLR 06/01 A2996 RMK AO2 SLP150 T00560011
KUNU 
20nm NE 
090755Z AUTO 00000KT 2 1/2SM HZ CLR 04/00 A2998 RMK AO2 T00420004
TAF
KMSN 
16nm W 
090520Z 0906/1006 15005KT P6SM OVC100 FM091400 05010G18KT P6SM BKN150 FM100000 04005KT P6SM BKN070 FM100400 09006KT P6SM BKN040
NOTAMs
Click for the latest NOTAMs
NOTAMs are issued by the DoD/FAA and will open in a separate window not controlled by AirNav.

 

 
 

Would you like to see your business listed on this page?

 If your business provides an interesting product or service to pilots, flight crews, aircraft, or users of the Tesmer Airport, you should consider listing it here.  To start the listing process, click on the button below
 
Add a business
 

Other Pages about Tesmer Airport

Update a link
 
Copyright © AirNav, LLC. All rights reserved. Privacy Policy  Contact